sensor_id;sensor_type;location;lat;lon;timestamp;P1;durP1;ratioP1;P2;durP2;ratioP2
56657;SDS011;42530;52.240;19.354;2022-07-29T00:00:39;3.70;;;2.92;;
56657;SDS011;42530;52.240;19.354;2022-07-29T00:03:04;7.30;;;3.58;;
56657;SDS011;42530;52.240;19.354;2022-07-29T00:05:30;4.55;;;3.10;;
56657;SDS011;42530;52.240;19.354;2022-07-29T00:07:55;4.00;;;3.45;;
56657;SDS011;42530;52.240;19.354;2022-07-29T00:10:22;4.88;;;2.72;;
56657;SDS011;42530;52.240;19.354;2022-07-29T00:12:48;3.42;;;3.00;;
56657;SDS011;42530;52.240;19.354;2022-07-29T00:15:13;4.68;;;3.33;;
56657;SDS011;42530;52.240;19.354;2022-07-29T00:17:39;4.15;;;3.58;;
56657;SDS011;42530;52.240;19.354;2022-07-29T00:20:05;6.78;;;3.60;;
56657;SDS011;42530;52.240;19.354;2022-07-29T00:22:31;7.88;;;3.53;;
56657;SDS011;42530;52.240;19.354;2022-07-29T00:24:56;5.35;;;3.38;;
56657;SDS011;42530;52.240;19.354;2022-07-29T00:27:22;6.38;;;3.83;;
56657;SDS011;42530;52.240;19.354;2022-07-29T00:29:47;7.25;;;3.65;;
56657;SDS011;42530;52.240;19.354;2022-07-29T00:32:13;3.88;;;3.35;;
56657;SDS011;42530;52.240;19.354;2022-07-29T00:34:39;6.38;;;4.03;;
56657;SDS011;42530;52.240;19.354;2022-07-29T00:37:23;5.00;;;3.53;;
56657;SDS011;42530;52.240;19.354;2022-07-29T00:39:48;4.03;;;3.20;;
56657;SDS011;42530;52.240;19.354;2022-07-29T00:42:14;5.47;;;3.85;;
56657;SDS011;42530;52.240;19.354;2022-07-29T00:44:41;3.15;;;2.88;;
56657;SDS011;42530;52.240;19.354;2022-07-29T00:47:08;4.85;;;3.40;;
56657;SDS011;42530;52.240;19.354;2022-07-29T00:49:35;6.30;;;3.58;;
56657;SDS011;42530;52.240;19.354;2022-07-29T00:52:02;3.38;;;3.08;;
56657;SDS011;42530;52.240;19.354;2022-07-29T00:54:32;4.38;;;2.58;;
56657;SDS011;42530;52.240;19.354;2022-07-29T00:56:59;3.33;;;2.78;;
56657;SDS011;42530;52.240;19.354;2022-07-29T00:59:28;2.92;;;2.70;;
56657;SDS011;42530;52.240;19.354;2022-07-29T01:01:54;4.82;;;2.65;;
56657;SDS011;42530;52.240;19.354;2022-07-29T01:04:23;3.28;;;3.08;;
56657;SDS011;42530;52.240;19.354;2022-07-29T01:06:49;3.00;;;2.78;;
56657;SDS011;42530;52.240;19.354;2022-07-29T01:09:17;2.95;;;2.75;;
56657;SDS011;42530;52.240;19.354;2022-07-29T01:11:43;3.05;;;2.85;;
56657;SDS011;42530;52.240;19.354;2022-07-29T01:14:12;4.10;;;2.78;;
56657;SDS011;42530;52.240;19.354;2022-07-29T01:16:45;2.45;;;2.25;;
56657;SDS011;42530;52.240;19.354;2022-07-29T01:30:31;4.63;;;3.10;;
56657;SDS011;42530;52.240;19.354;2022-07-29T01:33:02;3.28;;;2.88;;
56657;SDS011;42530;52.240;19.354;2022-07-29T01:35:33;3.80;;;3.10;;
56657;SDS011;42530;52.240;19.354;2022-07-29T01:38:11;8.98;;;3.65;;
56657;SDS011;42530;52.240;19.354;2022-07-29T01:43:17;4.47;;;2.92;;
56657;SDS011;42530;52.240;19.354;2022-07-29T01:45:50;3.53;;;3.22;;
56657;SDS011;42530;52.240;19.354;2022-07-29T01:48:23;4.13;;;2.83;;
56657;SDS011;42530;52.240;19.354;2022-07-29T01:51:02;2.90;;;2.70;;
56657;SDS011;42530;52.240;19.354;2022-07-29T01:56:04;4.22;;;3.35;;
56657;SDS011;42530;52.240;19.354;2022-07-29T01:58:34;3.75;;;2.88;;
56657;SDS011;42530;52.240;19.354;2022-07-29T02:01:01;5.85;;;3.80;;
56657;SDS011;42530;52.240;19.354;2022-07-29T02:03:28;3.42;;;3.13;;
56657;SDS011;42530;52.240;19.354;2022-07-29T02:05:56;4.72;;;3.45;;
56657;SDS011;42530;52.240;19.354;2022-07-29T02:08:23;3.75;;;3.28;;
56657;SDS011;42530;52.240;19.354;2022-07-29T02:10:50;4.38;;;3.28;;
56657;SDS011;42530;52.240;19.354;2022-07-29T02:13:17;3.55;;;3.25;;
56657;SDS011;42530;52.240;19.354;2022-07-29T02:15:46;4.63;;;3.75;;
56657;SDS011;42530;52.240;19.354;2022-07-29T02:18:16;3.53;;;2.85;;
56657;SDS011;42530;52.240;19.354;2022-07-29T02:20:47;2.95;;;2.63;;
56657;SDS011;42530;52.240;19.354;2022-07-29T02:23:14;3.22;;;3.03;;
56657;SDS011;42530;52.240;19.354;2022-07-29T02:25:44;3.38;;;3.08;;
56657;SDS011;42530;52.240;19.354;2022-07-29T02:28:11;4.93;;;3.47;;
56657;SDS011;42530;52.240;19.354;2022-07-29T02:30:40;4.43;;;3.22;;
56657;SDS011;42530;52.240;19.354;2022-07-29T02:33:07;5.00;;;3.03;;
56657;SDS011;42530;52.240;19.354;2022-07-29T02:35:35;5.25;;;2.90;;
56657;SDS011;42530;52.240;19.354;2022-07-29T02:38:01;3.63;;;3.33;;
56657;SDS011;42530;52.240;19.354;2022-07-29T02:40:46;4.72;;;3.33;;
56657;SDS011;42530;52.240;19.354;2022-07-29T02:43:12;3.90;;;2.88;;
56657;SDS011;42530;52.240;19.354;2022-07-29T02:45:39;8.65;;;3.13;;
56657;SDS011;42530;52.240;19.354;2022-07-29T02:48:05;3.17;;;2.97;;
56657;SDS011;42530;52.240;19.354;2022-07-29T02:50:37;4.80;;;3.92;;
56657;SDS011;42530;52.240;19.354;2022-07-29T02:53:13;4.63;;;2.88;;
56657;SDS011;42530;52.240;19.354;2022-07-29T02:55:45;3.65;;;3.30;;
56657;SDS011;42530;52.240;19.354;2022-07-29T02:58:33;3.72;;;3.42;;
56657;SDS011;42530;52.240;19.354;2022-07-29T03:01:03;3.63;;;3.35;;
56657;SDS011;42530;52.240;19.354;2022-07-29T03:03:36;5.07;;;3.22;;
56657;SDS011;42530;52.240;19.354;2022-07-29T03:06:04;4.20;;;2.92;;
56657;SDS011;42530;52.240;19.354;2022-07-29T03:08:32;3.58;;;3.10;;
56657;SDS011;42530;52.240;19.354;2022-07-29T03:11:00;3.45;;;3.15;;
56657;SDS011;42530;52.240;19.354;2022-07-29T03:13:27;5.25;;;3.35;;
56657;SDS011;42530;52.240;19.354;2022-07-29T03:15:53;3.47;;;3.17;;
56657;SDS011;42530;52.240;19.354;2022-07-29T03:18:19;3.28;;;2.97;;
56657;SDS011;42530;52.240;19.354;2022-07-29T03:20:45;3.40;;;3.08;;
56657;SDS011;42530;52.240;19.354;2022-07-29T03:23:11;3.85;;;2.72;;
56657;SDS011;42530;52.240;19.354;2022-07-29T03:25:37;5.25;;;3.50;;
56657;SDS011;42530;52.240;19.354;2022-07-29T03:28:02;4.30;;;3.13;;
56657;SDS011;42530;52.240;19.354;2022-07-29T03:30:28;6.35;;;3.50;;
56657;SDS011;42530;52.240;19.354;2022-07-29T03:32:55;3.72;;;3.45;;
56657;SDS011;42530;52.240;19.354;2022-07-29T03:35:21;4.32;;;3.92;;
56657;SDS011;42530;52.240;19.354;2022-07-29T03:37:48;6.25;;;3.80;;
56657;SDS011;42530;52.240;19.354;2022-07-29T03:40:16;3.65;;;3.35;;
56657;SDS011;42530;52.240;19.354;2022-07-29T03:42:47;9.75;;;3.67;;
56657;SDS011;42530;52.240;19.354;2022-07-29T03:45:16;3.17;;;2.88;;
56657;SDS011;42530;52.240;19.354;2022-07-29T03:47:47;4.05;;;2.70;;
56657;SDS011;42530;52.240;19.354;2022-07-29T03:50:16;3.17;;;2.97;;
56657;SDS011;42530;52.240;19.354;2022-07-29T03:52:44;5.32;;;3.13;;
56657;SDS011;42530;52.240;19.354;2022-07-29T03:55:10;4.10;;;3.70;;
56657;SDS011;42530;52.240;19.354;2022-07-29T03:57:37;3.40;;;2.75;;
56657;SDS011;42530;52.240;19.354;2022-07-29T04:00:04;3.55;;;3.28;;
56657;SDS011;42530;52.240;19.354;2022-07-29T04:02:32;3.25;;;3.00;;
56657;SDS011;42530;52.240;19.354;2022-07-29T04:04:58;3.38;;;3.10;;
56657;SDS011;42530;52.240;19.354;2022-07-29T04:07:24;3.38;;;3.03;;
56657;SDS011;42530;52.240;19.354;2022-07-29T04:09:49;3.67;;;3.40;;
56657;SDS011;42530;52.240;19.354;2022-07-29T04:12:15;3.95;;;3.65;;
56657;SDS011;42530;52.240;19.354;2022-07-29T04:14:41;4.18;;;3.70;;
56657;SDS011;42530;52.240;19.354;2022-07-29T04:17:06;4.07;;;3.65;;
56657;SDS011;42530;52.240;19.354;2022-07-29T04:19:32;3.40;;;3.08;;
56657;SDS011;42530;52.240;19.354;2022-07-29T04:21:58;4.38;;;4.07;;
56657;SDS011;42530;52.240;19.354;2022-07-29T04:24:24;4.20;;;3.90;;
56657;SDS011;42530;52.240;19.354;2022-07-29T04:26:50;4.43;;;4.13;;
56657;SDS011;42530;52.240;19.354;2022-07-29T04:29:16;3.65;;;3.40;;
56657;SDS011;42530;52.240;19.354;2022-07-29T04:31:42;5.35;;;4.85;;
56657;SDS011;42530;52.240;19.354;2022-07-29T04:34:08;4.18;;;3.58;;
56657;SDS011;42530;52.240;19.354;2022-07-29T04:36:34;9.63;;;4.07;;
56657;SDS011;42530;52.240;19.354;2022-07-29T04:38:59;4.57;;;3.92;;
56657;SDS011;42530;52.240;19.354;2022-07-29T04:41:26;4.45;;;4.07;;
56657;SDS011;42530;52.240;19.354;2022-07-29T04:43:54;3.33;;;2.97;;
56657;SDS011;42530;52.240;19.354;2022-07-29T04:46:20;3.40;;;3.10;;
56657;SDS011;42530;52.240;19.354;2022-07-29T04:48:46;2.75;;;2.55;;
56657;SDS011;42530;52.240;19.354;2022-07-29T04:51:12;4.43;;;4.03;;
56657;SDS011;42530;52.240;19.354;2022-07-29T04:53:39;3.35;;;3.05;;
56657;SDS011;42530;52.240;19.354;2022-07-29T04:56:04;3.33;;;2.97;;
56657;SDS011;42530;52.240;19.354;2022-07-29T04:58:30;3.20;;;2.92;;
56657;SDS011;42530;52.240;19.354;2022-07-29T05:00:55;5.20;;;3.70;;
56657;SDS011;42530;52.240;19.354;2022-07-29T05:03:21;4.50;;;3.47;;
56657;SDS011;42530;52.240;19.354;2022-07-29T05:05:46;8.55;;;3.47;;
56657;SDS011;42530;52.240;19.354;2022-07-29T05:08:12;4.53;;;4.13;;
56657;SDS011;42530;52.240;19.354;2022-07-29T05:10:37;6.60;;;3.97;;
56657;SDS011;42530;52.240;19.354;2022-07-29T05:13:04;7.63;;;3.67;;
56657;SDS011;42530;52.240;19.354;2022-07-29T05:15:31;4.72;;;4.03;;
56657;SDS011;42530;52.240;19.354;2022-07-29T05:17:58;5.13;;;4.03;;
56657;SDS011;42530;52.240;19.354;2022-07-29T05:20:23;5.45;;;3.95;;
56657;SDS011;42530;52.240;19.354;2022-07-29T05:22:54;4.88;;;3.78;;
56657;SDS011;42530;52.240;19.354;2022-07-29T05:25:24;5.25;;;4.22;;
56657;SDS011;42530;52.240;19.354;2022-07-29T05:27:50;4.65;;;3.58;;
56657;SDS011;42530;52.240;19.354;2022-07-29T05:30:16;4.50;;;4.03;;
56657;SDS011;42530;52.240;19.354;2022-07-29T05:32:41;4.18;;;3.67;;
56657;SDS011;42530;52.240;19.354;2022-07-29T05:35:07;4.55;;;3.80;;
56657;SDS011;42530;52.240;19.354;2022-07-29T05:37:33;3.53;;;3.22;;
56657;SDS011;42530;52.240;19.354;2022-07-29T05:39:59;5.25;;;4.40;;
56657;SDS011;42530;52.240;19.354;2022-07-29T05:42:25;3.95;;;3.70;;
56657;SDS011;42530;52.240;19.354;2022-07-29T05:44:51;5.25;;;3.35;;
56657;SDS011;42530;52.240;19.354;2022-07-29T05:47:17;3.55;;;3.35;;
56657;SDS011;42530;52.240;19.354;2022-07-29T05:49:43;4.00;;;3.60;;
56657;SDS011;42530;52.240;19.354;2022-07-29T05:52:08;6.00;;;3.83;;
56657;SDS011;42530;52.240;19.354;2022-07-29T05:54:35;5.32;;;4.15;;
56657;SDS011;42530;52.240;19.354;2022-07-29T05:57:00;3.65;;;3.35;;
56657;SDS011;42530;52.240;19.354;2022-07-29T05:59:26;3.13;;;2.60;;
56657;SDS011;42530;52.240;19.354;2022-07-29T06:01:52;4.65;;;3.17;;
56657;SDS011;42530;52.240;19.354;2022-07-29T06:04:17;4.25;;;2.80;;
56657;SDS011;42530;52.240;19.354;2022-07-29T06:06:43;4.50;;;3.42;;
56657;SDS011;42530;52.240;19.354;2022-07-29T06:09:08;4.03;;;2.38;;
56657;SDS011;42530;52.240;19.354;2022-07-29T06:11:34;4.20;;;3.47;;
56657;SDS011;42530;52.240;19.354;2022-07-29T06:13:59;3.50;;;3.20;;
56657;SDS011;42530;52.240;19.354;2022-07-29T06:16:25;3.03;;;2.65;;
56657;SDS011;42530;52.240;19.354;2022-07-29T06:18:50;3.65;;;3.33;;
56657;SDS011;42530;52.240;19.354;2022-07-29T06:21:16;3.35;;;3.03;;
56657;SDS011;42530;52.240;19.354;2022-07-29T06:23:41;9.43;;;3.78;;
56657;SDS011;42530;52.240;19.354;2022-07-29T06:26:07;6.70;;;3.60;;
56657;SDS011;42530;52.240;19.354;2022-07-29T06:28:33;3.22;;;2.92;;
56657;SDS011;42530;52.240;19.354;2022-07-29T06:30:59;4.18;;;2.88;;
56657;SDS011;42530;52.240;19.354;2022-07-29T06:33:25;4.45;;;2.70;;
56657;SDS011;42530;52.240;19.354;2022-07-29T06:35:50;3.25;;;2.97;;
56657;SDS011;42530;52.240;19.354;2022-07-29T06:38:16;3.28;;;2.70;;
56657;SDS011;42530;52.240;19.354;2022-07-29T06:40:44;2.15;;;2.05;;
56657;SDS011;42530;52.240;19.354;2022-07-29T06:43:31;3.00;;;2.80;;
56657;SDS011;42530;52.240;19.354;2022-07-29T06:46:03;4.90;;;3.03;;
56657;SDS011;42530;52.240;19.354;2022-07-29T06:48:32;10.95;;;3.33;;
56657;SDS011;42530;52.240;19.354;2022-07-29T06:50:58;3.30;;;2.92;;
56657;SDS011;42530;52.240;19.354;2022-07-29T06:53:25;5.38;;;3.38;;
56657;SDS011;42530;52.240;19.354;2022-07-29T06:55:51;3.10;;;2.80;;
56657;SDS011;42530;52.240;19.354;2022-07-29T06:58:17;3.47;;;3.15;;
56657;SDS011;42530;52.240;19.354;2022-07-29T07:00:46;4.05;;;2.85;;
56657;SDS011;42530;52.240;19.354;2022-07-29T07:03:13;4.38;;;3.33;;
56657;SDS011;42530;52.240;19.354;2022-07-29T07:05:39;6.85;;;3.47;;
56657;SDS011;42530;52.240;19.354;2022-07-29T07:08:05;4.10;;;2.50;;
56657;SDS011;42530;52.240;19.354;2022-07-29T07:10:30;5.00;;;4.18;;
56657;SDS011;42530;52.240;19.354;2022-07-29T07:12:57;3.25;;;3.00;;
56657;SDS011;42530;52.240;19.354;2022-07-29T07:15:23;2.22;;;1.92;;
56657;SDS011;42530;52.240;19.354;2022-07-29T07:17:48;4.75;;;2.67;;
56657;SDS011;42530;52.240;19.354;2022-07-29T07:20:14;3.78;;;3.33;;
56657;SDS011;42530;52.240;19.354;2022-07-29T07:22:43;5.60;;;3.55;;
56657;SDS011;42530;52.240;19.354;2022-07-29T07:25:09;2.60;;;2.40;;
56657;SDS011;42530;52.240;19.354;2022-07-29T07:27:35;4.07;;;2.55;;
56657;SDS011;42530;52.240;19.354;2022-07-29T07:30:02;3.40;;;2.90;;
56657;SDS011;42530;52.240;19.354;2022-07-29T07:32:31;5.68;;;3.05;;
56657;SDS011;42530;52.240;19.354;2022-07-29T07:34:57;3.45;;;2.38;;
56657;SDS011;42530;52.240;19.354;2022-07-29T07:37:24;7.32;;;2.35;;
56657;SDS011;42530;52.240;19.354;2022-07-29T07:39:50;5.25;;;3.00;;
56657;SDS011;42530;52.240;19.354;2022-07-29T07:42:16;3.47;;;2.65;;
56657;SDS011;42530;52.240;19.354;2022-07-29T07:44:42;5.35;;;2.85;;
56657;SDS011;42530;52.240;19.354;2022-07-29T07:47:08;4.72;;;3.33;;
56657;SDS011;42530;52.240;19.354;2022-07-29T07:49:34;4.43;;;2.65;;
56657;SDS011;42530;52.240;19.354;2022-07-29T07:51:59;3.47;;;3.17;;
56657;SDS011;42530;52.240;19.354;2022-07-29T07:54:25;4.22;;;2.63;;
56657;SDS011;42530;52.240;19.354;2022-07-29T07:56:51;4.97;;;3.15;;
56657;SDS011;42530;52.240;19.354;2022-07-29T07:59:16;2.67;;;2.45;;
56657;SDS011;42530;52.240;19.354;2022-07-29T08:01:42;5.00;;;2.50;;
56657;SDS011;42530;52.240;19.354;2022-07-29T08:04:08;3.33;;;2.85;;
56657;SDS011;42530;52.240;19.354;2022-07-29T08:06:34;3.40;;;3.08;;
56657;SDS011;42530;52.240;19.354;2022-07-29T08:09:01;2.90;;;2.25;;
56657;SDS011;42530;52.240;19.354;2022-07-29T08:11:27;4.03;;;2.92;;
56657;SDS011;42530;52.240;19.354;2022-07-29T08:13:53;2.92;;;2.13;;
56657;SDS011;42530;52.240;19.354;2022-07-29T08:16:19;4.75;;;2.22;;
56657;SDS011;42530;52.240;19.354;2022-07-29T08:18:45;5.85;;;2.50;;
56657;SDS011;42530;52.240;19.354;2022-07-29T08:21:11;2.35;;;2.15;;
56657;SDS011;42530;52.240;19.354;2022-07-29T08:23:37;2.53;;;2.30;;
56657;SDS011;42530;52.240;19.354;2022-07-29T08:26:11;2.03;;;1.85;;
56657;SDS011;42530;52.240;19.354;2022-07-29T08:28:38;5.03;;;2.13;;
56657;SDS011;42530;52.240;19.354;2022-07-29T08:31:11;2.67;;;2.47;;
56657;SDS011;42530;52.240;19.354;2022-07-29T08:33:38;7.03;;;2.67;;
56657;SDS011;42530;52.240;19.354;2022-07-29T08:36:04;4.45;;;2.30;;
56657;SDS011;42530;52.240;19.354;2022-07-29T08:38:31;5.32;;;2.47;;
56657;SDS011;42530;52.240;19.354;2022-07-29T08:40:57;2.35;;;2.03;;
56657;SDS011;42530;52.240;19.354;2022-07-29T08:43:23;2.90;;;2.60;;
56657;SDS011;42530;52.240;19.354;2022-07-29T08:45:49;3.85;;;2.15;;
56657;SDS011;42530;52.240;19.354;2022-07-29T08:48:17;4.57;;;2.42;;
56657;SDS011;42530;52.240;19.354;2022-07-29T08:50:45;5.43;;;4.93;;
56657;SDS011;42530;52.240;19.354;2022-07-29T08:53:15;2.15;;;1.70;;
56657;SDS011;42530;52.240;19.354;2022-07-29T08:55:49;8.20;;;3.38;;
56657;SDS011;42530;52.240;19.354;2022-07-29T08:58:15;2.55;;;1.90;;
56657;SDS011;42530;52.240;19.354;2022-07-29T09:00:42;3.20;;;2.20;;
56657;SDS011;42530;52.240;19.354;2022-07-29T09:03:12;1.88;;;1.77;;
56657;SDS011;42530;52.240;19.354;2022-07-29T09:05:41;2.67;;;1.83;;
56657;SDS011;42530;52.240;19.354;2022-07-29T09:08:08;2.83;;;2.58;;
56657;SDS011;42530;52.240;19.354;2022-07-29T09:10:37;3.78;;;3.47;;
56657;SDS011;42530;52.240;19.354;2022-07-29T09:13:03;6.10;;;2.47;;
56657;SDS011;42530;52.240;19.354;2022-07-29T09:15:28;3.33;;;2.40;;
56657;SDS011;42530;52.240;19.354;2022-07-29T09:17:54;4.43;;;2.60;;
56657;SDS011;42530;52.240;19.354;2022-07-29T09:20:21;2.63;;;1.58;;
56657;SDS011;42530;52.240;19.354;2022-07-29T09:22:48;3.10;;;2.15;;
56657;SDS011;42530;52.240;19.354;2022-07-29T09:25:37;2.28;;;2.05;;
56657;SDS011;42530;52.240;19.354;2022-07-29T09:28:09;1.73;;;1.63;;
56657;SDS011;42530;52.240;19.354;2022-07-29T09:30:35;2.65;;;1.95;;
56657;SDS011;42530;52.240;19.354;2022-07-29T09:33:15;1.40;;;1.40;;
56657;SDS011;42530;52.240;19.354;2022-07-29T09:35:40;5.05;;;2.20;;
56657;SDS011;42530;52.240;19.354;2022-07-29T09:38:10;1.60;;;1.50;;
56657;SDS011;42530;52.240;19.354;2022-07-29T09:40:36;1.80;;;1.70;;
56657;SDS011;42530;52.240;19.354;2022-07-29T09:43:09;4.38;;;2.10;;
56657;SDS011;42530;52.240;19.354;2022-07-29T09:45:35;1.65;;;1.55;;
56657;SDS011;42530;52.240;19.354;2022-07-29T09:50:45;4.35;;;1.98;;
56657;SDS011;42530;52.240;19.354;2022-07-29T09:56:00;2.08;;;1.98;;
56657;SDS011;42530;52.240;19.354;2022-07-29T09:58:26;1.90;;;1.80;;
56657;SDS011;42530;52.240;19.354;2022-07-29T10:00:52;3.08;;;1.95;;
56657;SDS011;42530;52.240;19.354;2022-07-29T10:03:19;2.05;;;1.85;;
56657;SDS011;42530;52.240;19.354;2022-07-29T10:05:46;2.25;;;1.63;;
56657;SDS011;42530;52.240;19.354;2022-07-29T10:08:28;2.10;;;1.35;;
56657;SDS011;42530;52.240;19.354;2022-07-29T10:11:03;2.28;;;1.70;;
56657;SDS011;42530;52.240;19.354;2022-07-29T10:13:34;1.45;;;1.35;;
56657;SDS011;42530;52.240;19.354;2022-07-29T10:15:59;2.45;;;1.60;;
56657;SDS011;42530;52.240;19.354;2022-07-29T10:18:25;2.00;;;1.77;;
56657;SDS011;42530;52.240;19.354;2022-07-29T10:20:51;1.42;;;1.20;;
56657;SDS011;42530;52.240;19.354;2022-07-29T10:23:17;3.55;;;1.15;;
56657;SDS011;42530;52.240;19.354;2022-07-29T10:25:45;4.47;;;1.73;;
56657;SDS011;42530;52.240;19.354;2022-07-29T10:28:18;1.83;;;1.73;;
56657;SDS011;42530;52.240;19.354;2022-07-29T10:30:44;2.25;;;2.05;;
56657;SDS011;42530;52.240;19.354;2022-07-29T10:39:00;1.48;;;1.42;;
56657;SDS011;42530;52.240;19.354;2022-07-29T10:41:59;1.92;;;1.75;;
56657;SDS011;42530;52.240;19.354;2022-07-29T10:44:39;5.25;;;2.45;;
56657;SDS011;42530;52.240;19.354;2022-07-29T10:47:06;1.73;;;1.40;;
56657;SDS011;42530;52.240;19.354;2022-07-29T10:49:31;2.65;;;1.42;;
56657;SDS011;42530;52.240;19.354;2022-07-29T10:52:08;3.75;;;1.85;;
56657;SDS011;42530;52.240;19.354;2022-07-29T10:57:17;1.83;;;1.65;;
56657;SDS011;42530;52.240;19.354;2022-07-29T10:59:46;3.08;;;1.50;;
56657;SDS011;42530;52.240;19.354;2022-07-29T11:04:58;1.75;;;1.65;;
56657;SDS011;42530;52.240;19.354;2022-07-29T11:07:24;1.65;;;1.35;;
56657;SDS011;42530;52.240;19.354;2022-07-29T11:18:16;2.45;;;1.45;;
56657;SDS011;42530;52.240;19.354;2022-07-29T11:23:18;1.33;;;1.23;;
56657;SDS011;42530;52.240;19.354;2022-07-29T11:26:31;2.65;;;1.42;;
56657;SDS011;42530;52.240;19.354;2022-07-29T11:28:50;2.30;;;0.98;;
56657;SDS011;42530;52.240;19.354;2022-07-29T11:31:31;1.52;;;1.42;;
56657;SDS011;42530;52.240;19.354;2022-07-29T11:39:38;3.10;;;1.48;;
56657;SDS011;42530;52.240;19.354;2022-07-29T11:44:55;1.85;;;1.40;;
56657;SDS011;42530;52.240;19.354;2022-07-29T11:47:25;2.10;;;1.52;;
56657;SDS011;42530;52.240;19.354;2022-07-29T11:49:52;2.95;;;2.35;;
56657;SDS011;42530;52.240;19.354;2022-07-29T11:52:18;2.10;;;1.98;;
56657;SDS011;42530;52.240;19.354;2022-07-29T11:54:45;3.67;;;2.78;;
56657;SDS011;42530;52.240;19.354;2022-07-29T11:57:12;2.28;;;2.17;;
56657;SDS011;42530;52.240;19.354;2022-07-29T11:59:40;2.75;;;2.08;;
56657;SDS011;42530;52.240;19.354;2022-07-29T12:02:06;4.57;;;1.63;;
56657;SDS011;42530;52.240;19.354;2022-07-29T12:04:33;2.70;;;1.83;;
56657;SDS011;42530;52.240;19.354;2022-07-29T12:07:12;1.63;;;1.38;;
56657;SDS011;42530;52.240;19.354;2022-07-29T12:09:38;1.48;;;1.38;;
56657;SDS011;42530;52.240;19.354;2022-07-29T12:12:04;1.60;;;1.50;;
56657;SDS011;42530;52.240;19.354;2022-07-29T12:14:31;3.22;;;1.73;;
56657;SDS011;42530;52.240;19.354;2022-07-29T12:16:58;2.25;;;1.58;;
56657;SDS011;42530;52.240;19.354;2022-07-29T12:19:24;1.85;;;1.75;;
56657;SDS011;42530;52.240;19.354;2022-07-29T12:21:53;1.70;;;1.13;;
56657;SDS011;42530;52.240;19.354;2022-07-29T12:24:20;2.58;;;1.88;;
56657;SDS011;42530;52.240;19.354;2022-07-29T12:26:56;2.45;;;1.40;;
56657;SDS011;42530;52.240;19.354;2022-07-29T12:29:23;1.55;;;1.25;;
56657;SDS011;42530;52.240;19.354;2022-07-29T12:31:52;3.15;;;1.90;;
56657;SDS011;42530;52.240;19.354;2022-07-29T12:34:19;3.22;;;1.23;;
56657;SDS011;42530;52.240;19.354;2022-07-29T12:36:47;1.48;;;1.38;;
56657;SDS011;42530;52.240;19.354;2022-07-29T12:39:13;1.85;;;1.30;;
56657;SDS011;42530;52.240;19.354;2022-07-29T12:41:43;2.65;;;1.30;;
56657;SDS011;42530;52.240;19.354;2022-07-29T12:44:09;4.55;;;2.40;;
56657;SDS011;42530;52.240;19.354;2022-07-29T12:46:35;2.95;;;1.27;;
56657;SDS011;42530;52.240;19.354;2022-07-29T12:49:01;2.20;;;1.42;;
56657;SDS011;42530;52.240;19.354;2022-07-29T12:51:37;1.75;;;1.23;;
56657;SDS011;42530;52.240;19.354;2022-07-29T12:54:11;1.52;;;1.42;;
56657;SDS011;42530;52.240;19.354;2022-07-29T12:56:38;3.78;;;1.70;;
56657;SDS011;42530;52.240;19.354;2022-07-29T12:59:41;2.15;;;1.85;;
56657;SDS011;42530;52.240;19.354;2022-07-29T13:01:59;4.75;;;1.75;;
56657;SDS011;42530;52.240;19.354;2022-07-29T13:04:26;1.75;;;1.52;;
56657;SDS011;42530;52.240;19.354;2022-07-29T13:07:03;4.15;;;1.52;;
56657;SDS011;42530;52.240;19.354;2022-07-29T13:09:39;1.88;;;1.77;;
56657;SDS011;42530;52.240;19.354;2022-07-29T13:12:07;4.32;;;1.63;;
56657;SDS011;42530;52.240;19.354;2022-07-29T13:14:39;1.90;;;1.70;;
56657;SDS011;42530;52.240;19.354;2022-07-29T13:22:15;2.20;;;1.40;;
56657;SDS011;42530;52.240;19.354;2022-07-29T13:24:46;4.63;;;1.65;;
56657;SDS011;42530;52.240;19.354;2022-07-29T13:27:16;1.23;;;1.17;;
56657;SDS011;42530;52.240;19.354;2022-07-29T13:29:44;2.42;;;2.22;;
56657;SDS011;42530;52.240;19.354;2022-07-29T13:32:10;1.35;;;1.33;;
56657;SDS011;42530;52.240;19.354;2022-07-29T13:34:37;3.55;;;1.88;;
56657;SDS011;42530;52.240;19.354;2022-07-29T13:37:02;3.10;;;1.70;;
56657;SDS011;42530;52.240;19.354;2022-07-29T13:39:28;3.47;;;1.88;;
56657;SDS011;42530;52.240;19.354;2022-07-29T13:41:53;3.08;;;1.98;;
56657;SDS011;42530;52.240;19.354;2022-07-29T13:44:19;3.03;;;1.75;;
56657;SDS011;42530;52.240;19.354;2022-07-29T13:46:44;3.45;;;1.80;;
56657;SDS011;42530;52.240;19.354;2022-07-29T13:49:10;2.25;;;1.48;;
56657;SDS011;42530;52.240;19.354;2022-07-29T13:51:36;1.48;;;1.38;;
56657;SDS011;42530;52.240;19.354;2022-07-29T13:54:02;2.95;;;1.90;;
56657;SDS011;42530;52.240;19.354;2022-07-29T13:56:28;2.40;;;1.90;;
56657;SDS011;42530;52.240;19.354;2022-07-29T13:58:54;2.00;;;1.90;;
56657;SDS011;42530;52.240;19.354;2022-07-29T14:01:19;1.95;;;1.25;;
56657;SDS011;42530;52.240;19.354;2022-07-29T14:03:45;2.30;;;2.13;;
56657;SDS011;42530;52.240;19.354;2022-07-29T14:06:10;1.83;;;1.70;;
56657;SDS011;42530;52.240;19.354;2022-07-29T14:08:36;1.90;;;1.80;;
56657;SDS011;42530;52.240;19.354;2022-07-29T14:11:02;3.08;;;2.05;;
56657;SDS011;42530;52.240;19.354;2022-07-29T14:13:27;1.98;;;1.73;;
56657;SDS011;42530;52.240;19.354;2022-07-29T14:15:53;2.47;;;1.90;;
56657;SDS011;42530;52.240;19.354;2022-07-29T14:18:18;4.68;;;1.70;;
56657;SDS011;42530;52.240;19.354;2022-07-29T14:20:44;3.70;;;1.65;;
56657;SDS011;42530;52.240;19.354;2022-07-29T14:23:09;2.40;;;2.20;;
56657;SDS011;42530;52.240;19.354;2022-07-29T14:25:35;4.30;;;1.92;;
56657;SDS011;42530;52.240;19.354;2022-07-29T14:28:01;2.30;;;2.05;;
56657;SDS011;42530;52.240;19.354;2022-07-29T14:30:26;2.35;;;2.15;;
56657;SDS011;42530;52.240;19.354;2022-07-29T14:32:52;2.78;;;2.00;;
56657;SDS011;42530;52.240;19.354;2022-07-29T14:35:18;1.40;;;1.30;;
56657;SDS011;42530;52.240;19.354;2022-07-29T14:37:44;5.13;;;1.70;;
56657;SDS011;42530;52.240;19.354;2022-07-29T14:40:10;1.58;;;1.48;;
56657;SDS011;42530;52.240;19.354;2022-07-29T14:42:36;4.32;;;1.77;;
56657;SDS011;42530;52.240;19.354;2022-07-29T14:45:03;2.30;;;1.75;;
56657;SDS011;42530;52.240;19.354;2022-07-29T14:47:30;1.85;;;1.50;;
56657;SDS011;42530;52.240;19.354;2022-07-29T14:49:56;1.85;;;1.75;;
56657;SDS011;42530;52.240;19.354;2022-07-29T14:52:21;6.75;;;2.00;;
56657;SDS011;42530;52.240;19.354;2022-07-29T14:54:47;1.45;;;1.33;;
56657;SDS011;42530;52.240;19.354;2022-07-29T14:57:12;2.08;;;1.98;;
56657;SDS011;42530;52.240;19.354;2022-07-29T14:59:38;2.05;;;1.90;;
56657;SDS011;42530;52.240;19.354;2022-07-29T15:02:03;1.88;;;1.67;;
56657;SDS011;42530;52.240;19.354;2022-07-29T15:04:29;2.97;;;1.77;;
56657;SDS011;42530;52.240;19.354;2022-07-29T15:06:55;3.05;;;1.58;;
56657;SDS011;42530;52.240;19.354;2022-07-29T15:09:20;2.80;;;2.05;;
56657;SDS011;42530;52.240;19.354;2022-07-29T15:11:46;1.75;;;1.65;;
56657;SDS011;42530;52.240;19.354;2022-07-29T15:14:11;2.30;;;1.45;;
56657;SDS011;42530;52.240;19.354;2022-07-29T15:16:38;2.45;;;2.25;;
56657;SDS011;42530;52.240;19.354;2022-07-29T15:19:05;1.70;;;1.60;;
56657;SDS011;42530;52.240;19.354;2022-07-29T15:21:30;2.85;;;1.83;;
56657;SDS011;42530;52.240;19.354;2022-07-29T15:23:56;4.70;;;1.92;;
56657;SDS011;42530;52.240;19.354;2022-07-29T15:26:22;2.15;;;1.85;;
56657;SDS011;42530;52.240;19.354;2022-07-29T15:28:47;2.00;;;1.33;;
56657;SDS011;42530;52.240;19.354;2022-07-29T15:31:13;2.85;;;1.67;;
56657;SDS011;42530;52.240;19.354;2022-07-29T15:33:39;7.07;;;1.98;;